Time;durP1;ratioP1;P1;durP2;ratioP2;P2;SDS_P1;SDS_P2;PMS_P1;PMS_P2;Temp;Humidity;BMP_temperature;BMP_pressure;BME280_temperature;BME280_humidity;BME280_pressure;Samples;Min_cycle;Max_cycle;Signal;HPM_P1;HPM_P2
2021/05/15 00:00:05;;;;;;;;;;;7.80;99.90;;;;;;5064744;28;19920;-69
2021/05/15 00:02:30;;;;;;;;;;;7.80;99.90;;;;;;5064009;28;19916;-68
2021/05/15 00:04:57;;;;;;;;;;;7.70;99.90;;;;;;5064154;28;19924;-69
2021/05/15 00:07:23;;;;;;;;;;;7.60;99.90;;;;;;5064643;28;19927;-69
2021/05/15 00:09:48;;;;;;;;;;;7.60;99.90;;;;;;5065658;28;19916;-70
2021/05/15 00:12:14;;;;;;;;;;;7.50;99.90;;;;;;5068042;28;19924;-69
2021/05/15 00:14:39;;;;;;;;;;;7.50;99.90;;;;;;5067445;28;19923;-70
2021/05/15 00:17:05;;;;;;;;;;;7.50;99.90;;;;;;5067971;28;19942;-69
2021/05/15 00:19:31;;;;;;;;;;;7.50;99.90;;;;;;5068520;28;20007;-69
2021/05/15 00:21:56;;;;;;;;;;;7.50;99.90;;;;;;5067880;28;19920;-68
2021/05/15 00:24:22;;;;;;;;;;;7.50;99.90;;;;;;5068755;28;19965;-67
2021/05/15 00:26:48;;;;;;;;;;;7.50;99.90;;;;;;5070167;28;19988;-68
2021/05/15 00:29:14;;;;;;;;;;;7.40;99.90;;;;;;5070400;28;19924;-70
2021/05/15 00:31:39;;;;;;;;;;;7.40;99.90;;;;;;5069284;28;19923;-70
2021/05/15 00:34:05;;;;;;;;;;;7.30;99.90;;;;;;5068926;28;19943;-68
2021/05/15 00:36:31;;;;;;;;;;;7.40;99.90;;;;;;5069377;28;20001;-67
2021/05/15 00:38:56;;;;;;;;;;;7.30;99.90;;;;;;5068486;28;20062;-70
2021/05/15 00:41:22;;;;;;;;;;;7.20;99.90;;;;;;5068247;28;19959;-67
2021/05/15 00:46:45;;;;;;;;;;;7.10;99.90;;;;;;5046591;28;19973;-67
2021/05/15 00:49:10;;;;;;;;;;;7.10;99.90;;;;;;5067893;28;19931;-68
2021/05/15 00:51:36;;;;;;;;;;;7.10;99.90;;;;;;5057406;28;19916;-68
2021/05/15 00:54:02;;;;;;;;;;;7.10;99.90;;;;;;5047063;28;19921;-68
2021/05/15 00:56:29;;;;;;;;;;;7.00;99.90;;;;;;5051614;28;19924;-69
2021/05/15 00:58:55;;;;;;;;;;;7.00;99.90;;;;;;5067183;28;19916;-68
2021/05/15 01:01:21;;;;;;;;;;;7.00;99.90;;;;;;5067624;28;19924;-69
2021/05/15 01:03:48;;;;;;;;;;;7.00;99.90;;;;;;5068733;28;20297;-68
2021/05/15 01:06:14;;;;;;;;;;;7.00;99.90;;;;;;5057640;28;19917;-70
2021/05/15 01:08:45;;;;;;;;;;;7.00;99.90;;;;;;5048617;28;19916;-69
2021/05/15 01:11:15;;;;;;;;;;;7.00;99.90;;;;;;5047078;28;19920;-67
2021/05/15 01:13:49;;;;;;;;;;;7.00;99.90;;;;;;5047264;28;19943;-70
2021/05/15 01:16:15;;;;;;;;;;;7.00;99.90;;;;;;5046832;28;19943;-69
2021/05/15 01:18:40;;;;;;;;;;;7.00;99.90;;;;;;5046700;28;19921;-68
2021/05/15 01:21:06;;;;;;;;;;;6.90;99.90;;;;;;5046324;28;19924;-67
2021/05/15 01:23:31;;;;;;;;;;;6.90;99.90;;;;;;5047176;28;20342;-70
2021/05/15 01:25:57;;;;;;;;;;;6.80;99.90;;;;;;5047007;28;19920;-70
2021/05/15 01:28:27;;;;;;;;;;;6.90;99.90;;;;;;5065023;28;19927;-68
2021/05/15 01:30:53;;;;;;;;;;;6.90;99.90;;;;;;5066617;28;20263;-70
2021/05/15 01:33:19;;;;;;;;;;;6.90;99.90;;;;;;5067358;28;20552;-69
2021/05/15 01:35:44;;;;;;;;;;;6.90;99.90;;;;;;5066692;28;19916;-69
2021/05/15 01:38:10;;;;;;;;;;;6.80;99.90;;;;;;5065442;28;19920;-70
2021/05/15 01:40:36;;;;;;;;;;;6.90;99.90;;;;;;5056591;28;19924;-68
2021/05/15 01:43:01;;;;;;;;;;;6.80;99.90;;;;;;5047187;28;19917;-70
2021/05/15 01:45:27;;;;;;;;;;;6.80;99.90;;;;;;5047168;28;19972;-70
2021/05/15 01:47:53;;;;;;;;;;;6.80;99.90;;;;;;5047017;28;20011;-69
2021/05/15 01:50:18;;;;;;;;;;;6.70;99.90;;;;;;5061467;28;19917;-70
2021/05/15 01:52:45;;;;;;;;;;;6.70;99.90;;;;;;5069845;28;19917;-70
2021/05/15 01:55:13;;;;;;;;;;;6.70;99.90;;;;;;5066923;28;19973;-68
2021/05/15 01:57:41;;;;;;;;;;;6.70;99.90;;;;;;5066875;28;19956;-69
2021/05/15 02:00:07;;;;;;;;;;;6.70;99.90;;;;;;5066782;28;20383;-68
2021/05/15 02:02:33;;;;;;;;;;;6.70;99.90;;;;;;5066064;28;19991;-67
2021/05/15 02:04:58;;;;;;;;;;;6.80;99.90;;;;;;5066668;28;19928;-67
2021/05/15 02:07:24;;;;;;;;;;;6.80;99.90;;;;;;5065822;28;19981;-68
2021/05/15 02:09:50;;;;;;;;;;;6.80;99.90;;;;;;5066002;28;19917;-70
2021/05/15 02:12:15;;;;;;;;;;;6.90;99.90;;;;;;5067234;28;19916;-69
2021/05/15 02:14:41;;;;;;;;;;;6.90;99.90;;;;;;5067138;28;19917;-69
2021/05/15 02:17:07;;;;;;;;;;;6.90;99.90;;;;;;5064871;28;19970;-68
2021/05/15 02:19:32;;;;;;;;;;;6.80;99.90;;;;;;5069058;28;19962;-70
2021/05/15 02:21:58;;;;;;;;;;;6.90;99.90;;;;;;5066099;28;19916;-69
2021/05/15 02:24:24;;;;;;;;;;;6.80;99.90;;;;;;5065316;28;19923;-69
2021/05/15 02:26:49;;;;;;;;;;;6.90;99.90;;;;;;5065270;28;19920;-70
2021/05/15 02:29:15;;;;;;;;;;;6.90;99.90;;;;;;5065253;28;19920;-68
2021/05/15 02:31:41;;;;;;;;;;;6.90;99.90;;;;;;5065634;28;19920;-69
2021/05/15 02:34:06;;;;;;;;;;;6.90;99.90;;;;;;5055324;28;19912;-70
2021/05/15 02:36:32;;;;;;;;;;;6.90;99.90;;;;;;5046734;28;19965;-69
2021/05/15 02:39:00;;;;;;;;;;;7.00;99.90;;;;;;5046344;28;19969;-68
2021/05/15 02:41:25;;;;;;;;;;;7.00;99.90;;;;;;5046608;28;19917;-69
2021/05/15 02:43:51;;;;;;;;;;;7.00;99.90;;;;;;5046487;28;19923;-69
2021/05/15 02:46:17;;;;;;;;;;;7.10;99.90;;;;;;5045145;28;19981;-67
2021/05/15 02:48:42;;;;;;;;;;;7.10;99.90;;;;;;5048204;28;19917;-68
2021/05/15 02:51:08;;;;;;;;;;;7.10;99.90;;;;;;5053072;28;19923;-68
2021/05/15 02:53:34;;;;;;;;;;;7.10;99.90;;;;;;5066284;28;20020;-68
2021/05/15 02:56:00;;;;;;;;;;;7.20;99.90;;;;;;5065553;28;19916;-68
2021/05/15 02:58:25;;;;;;;;;;;7.20;99.90;;;;;;5065989;28;19920;-69
2021/05/15 03:00:51;;;;;;;;;;;7.20;99.90;;;;;;5066532;28;19916;-69
2021/05/15 03:03:17;;;;;;;;;;;7.30;99.90;;;;;;5066295;28;20359;-69
2021/05/15 03:05:43;;;;;;;;;;;7.40;99.90;;;;;;5067838;28;20384;-69
2021/05/15 03:08:08;;;;;;;;;;;7.40;99.90;;;;;;5066772;28;19920;-67
2021/05/15 03:10:34;;;;;;;;;;;7.50;99.90;;;;;;5067315;28;19955;-69
2021/05/15 03:13:00;;;;;;;;;;;7.50;99.90;;;;;;5071247;28;19969;-67
2021/05/15 03:15:26;;;;;;;;;;;7.50;99.90;;;;;;5074980;28;19916;-68
2021/05/15 03:17:54;;;;;;;;;;;7.60;99.90;;;;;;5068893;28;19916;-67
2021/05/15 03:20:22;;;;;;;;;;;7.60;99.90;;;;;;5066899;28;20042;-69
2021/05/15 03:22:48;;;;;;;;;;;7.60;99.90;;;;;;5067028;28;20453;-68
2021/05/15 03:25:14;;;;;;;;;;;7.60;99.90;;;;;;5065551;28;19928;-69
2021/05/15 03:27:40;;;;;;;;;;;7.60;99.90;;;;;;5067041;28;19928;-70
2021/05/15 03:32:34;;;;;;;;;;;7.70;99.90;;;;;;5056284;28;19920;-61
2021/05/15 03:34:59;;;;;;;;;;;7.80;99.90;;;;;;5067435;28;19969;-61
2021/05/15 03:37:25;;;;;;;;;;;7.80;99.90;;;;;;5067969;28;20383;-61
2021/05/15 03:39:51;;;;;;;;;;;7.80;99.90;;;;;;5068742;28;19999;-62
2021/05/15 03:42:16;;;;;;;;;;;7.90;99.90;;;;;;5068818;28;19917;-61
2021/05/15 03:44:42;;;;;;;;;;;7.90;99.90;;;;;;5071555;28;19927;-61
2021/05/15 03:47:07;;;;;;;;;;;7.90;99.90;;;;;;5073074;28;20407;-60
2021/05/15 03:49:33;;;;;;;;;;;8.00;99.90;;;;;;5073038;28;19916;-62
2021/05/15 03:51:59;;;;;;;;;;;8.00;99.90;;;;;;5072797;28;19927;-61
2021/05/15 03:54:25;;;;;;;;;;;8.00;99.90;;;;;;5072046;28;19916;-62
2021/05/15 03:56:51;;;;;;;;;;;8.00;99.90;;;;;;5073254;28;19939;-61
2021/05/15 03:59:16;;;;;;;;;;;8.00;99.90;;;;;;5071900;28;20033;-59
2021/05/15 04:01:42;;;;;;;;;;;8.10;99.90;;;;;;5071321;28;20446;-61
2021/05/15 04:04:07;;;;;;;;;;;8.10;99.90;;;;;;5072333;28;20422;-62
2021/05/15 04:06:33;;;;;;;;;;;8.10;99.90;;;;;;5072882;28;19924;-65
2021/05/15 04:08:58;;;;;;;;;;;8.10;99.90;;;;;;5072677;28;19982;-62
2021/05/15 04:11:33;;;;;;;;;;;8.10;99.90;;;;;;5072181;28;19979;-61
2021/05/15 04:14:01;;;;;;;;;;;8.20;99.90;;;;;;5072297;28;19920;-61
2021/05/15 04:16:45;;;;;;;;;;;8.20;99.90;;;;;;5072128;28;19923;-61
2021/05/15 04:19:10;;;;;;;;;;;8.20;99.90;;;;;;5071973;28;19920;-61
2021/05/15 04:21:36;;;;;;;;;;;8.10;99.90;;;;;;5071884;28;19973;-62
2021/05/15 04:24:02;;;;;;;;;;;8.20;99.90;;;;;;5071512;28;19956;-62
2021/05/15 04:26:27;;;;;;;;;;;8.20;99.90;;;;;;5072032;28;20634;-61
2021/05/15 04:28:53;;;;;;;;;;;8.30;99.90;;;;;;5071298;28;19920;-61
2021/05/15 04:31:18;;;;;;;;;;;8.20;99.90;;;;;;5069846;28;20405;-62
2021/05/15 04:33:43;;;;;;;;;;;8.30;99.90;;;;;;5071679;28;20291;-60
2021/05/15 04:36:09;;;;;;;;;;;8.30;99.90;;;;;;5071628;28;19920;-62
2021/05/15 04:38:34;;;;;;;;;;;8.30;99.90;;;;;;5069086;28;19920;-62
2021/05/15 04:41:00;;;;;;;;;;;8.30;99.90;;;;;;5072068;28;19927;-61
2021/05/15 04:43:25;;;;;;;;;;;8.30;99.90;;;;;;5071745;28;19920;-61
2021/05/15 04:45:53;;;;;;;;;;;8.40;99.90;;;;;;5070834;28;19958;-62
2021/05/15 04:48:19;;;;;;;;;;;8.60;99.90;;;;;;5071005;28;19931;-62
2021/05/15 04:50:44;;;;;;;;;;;8.80;99.90;;;;;;5071066;28;19916;-61
2021/05/15 04:53:10;;;;;;;;;;;8.90;99.90;;;;;;5072027;28;19924;-62
2021/05/15 04:55:36;;;;;;;;;;;9.00;99.90;;;;;;5070305;28;20567;-61
2021/05/15 04:58:01;;;;;;;;;;;9.30;99.90;;;;;;5071556;28;19989;-60
2021/05/15 05:00:27;;;;;;;;;;;10.40;99.90;;;;;;5070396;28;19963;-61
2021/05/15 05:02:52;;;;;;;;;;;11.50;99.90;;;;;;5070991;28;19920;-61
2021/05/15 05:05:18;;;;;;;;;;;12.70;99.90;;;;;;5070662;28;19921;-61
2021/05/15 05:07:44;;;;;;;;;;;12.70;98.50;;;;;;5071444;28;19926;-61
2021/05/15 05:10:09;;;;;;;;;;;12.40;99.20;;;;;;5070080;28;19980;-62
2021/05/15 05:12:35;;;;;;;;;;;13.60;97.50;;;;;;5071038;28;19943;-61
2021/05/15 05:15:00;;;;;;;;;;;14.60;94.10;;;;;;5070596;28;19924;-63
2021/05/15 05:17:26;;;;;;;;;;;14.60;92.20;;;;;;5070781;28;20298;-62
2021/05/15 05:19:51;;;;;;;;;;;13.90;93.60;;;;;;5070022;28;19920;-62
2021/05/15 05:22:17;;;;;;;;;;;12.90;95.90;;;;;;5070817;28;19916;-61
2021/05/15 05:24:45;;;;;;;;;;;12.20;97.30;;;;;;5070531;28;19916;-62
2021/05/15 05:27:10;;;;;;;;;;;11.80;98.00;;;;;;5071433;28;19927;-62
2021/05/15 05:29:36;;;;;;;;;;;11.40;98.70;;;;;;5069859;28;19916;-63
2021/05/15 05:32:01;;;;;;;;;;;11.10;99.20;;;;;;5069582;28;19990;-57
2021/05/15 05:34:27;;;;;;;;;;;10.80;99.90;;;;;;5070285;28;20390;-58
2021/05/15 05:36:52;;;;;;;;;;;10.80;99.90;;;;;;5070708;28;20330;-63
2021/05/15 05:41:47;;;;;;;;;;;13.00;96.40;;;;;;5094766;28;19924;-71
2021/05/15 05:44:13;;;;;;;;;;;13.10;95.30;;;;;;5076498;28;19935;-70
2021/05/15 05:46:38;;;;;;;;;;;12.60;96.50;;;;;;5091017;28;19920;-70
2021/05/15 05:49:04;;;;;;;;;;;12.20;97.50;;;;;;5085240;28;19995;-69
2021/05/15 05:51:30;;;;;;;;;;;12.60;97.00;;;;;;5086294;28;19927;-70
2021/05/15 05:53:56;;;;;;;;;;;12.80;97.40;;;;;;5075504;28;20336;-69
2021/05/15 05:56:22;;;;;;;;;;;12.60;96.90;;;;;;5077048;28;19920;-70
2021/05/15 05:58:47;;;;;;;;;;;12.30;97.20;;;;;;5095594;28;19915;-71
2021/05/15 06:01:15;;;;;;;;;;;12.10;97.40;;;;;;5099495;28;20064;-70
2021/05/15 06:03:42;;;;;;;;;;;12.40;97.90;;;;;;5095783;28;20444;-71
2021/05/15 06:06:10;;;;;;;;;;;12.20;96.90;;;;;;5094935;28;19915;-68
2021/05/15 06:08:36;;;;;;;;;;;12.10;98.30;;;;;;5093975;28;19920;-70
2021/05/15 06:11:02;;;;;;;;;;;11.90;98.50;;;;;;5095571;28;19938;-69
2021/05/15 06:13:27;;;;;;;;;;;12.10;98.20;;;;;;5095377;28;19915;-68
2021/05/15 06:15:53;;;;;;;;;;;12.00;98.30;;;;;;5093887;28;19996;-69
2021/05/15 06:18:19;;;;;;;;;;;11.90;97.70;;;;;;5094840;28;19972;-69
2021/05/15 06:20:45;;;;;;;;;;;11.50;98.40;;;;;;5095575;28;19924;-69
2021/05/15 06:23:10;;;;;;;;;;;11.30;99.20;;;;;;5087533;28;19923;-69
2021/05/15 06:25:36;;;;;;;;;;;11.20;99.50;;;;;;5098347;28;19916;-70
2021/05/15 06:28:01;;;;;;;;;;;11.50;99.90;;;;;;5074742;28;19930;-70
2021/05/15 06:30:27;;;;;;;;;;;12.80;98.00;;;;;;5076134;28;19916;-69
2021/05/15 06:32:53;;;;;;;;;;;13.50;96.20;;;;;;5106068;28;19920;-69
2021/05/15 06:35:19;;;;;;;;;;;13.20;96.70;;;;;;5085451;28;20375;-70
2021/05/15 06:37:44;;;;;;;;;;;12.90;97.70;;;;;;5080571;28;19938;-70
2021/05/15 06:40:10;;;;;;;;;;;12.90;98.10;;;;;;5092240;28;19916;-70
2021/05/15 06:42:36;;;;;;;;;;;12.90;97.20;;;;;;5075059;28;19919;-70
2021/05/15 06:45:06;;;;;;;;;;;13.30;96.40;;;;;;5091688;28;19915;-71
2021/05/15 06:47:31;;;;;;;;;;;13.10;96.70;;;;;;5073988;28;19931;-70
2021/05/15 06:49:57;;;;;;;;;;;12.80;96.30;;;;;;5092971;28;19916;-71
2021/05/15 06:52:23;;;;;;;;;;;12.40;97.20;;;;;;5078839;28;19919;-69
2021/05/15 06:54:49;;;;;;;;;;;12.00;98.80;;;;;;5106001;28;19919;-69
2021/05/15 06:57:14;;;;;;;;;;;11.90;99.20;;;;;;5088291;28;19920;-71
2021/05/15 06:59:40;;;;;;;;;;;11.70;99.10;;;;;;5089254;28;20057;-69
2021/05/15 07:02:06;;;;;;;;;;;11.60;99.50;;;;;;5098750;28;19994;-69
2021/05/15 07:04:31;;;;;;;;;;;11.40;99.70;;;;;;5089754;28;19919;-71
2021/05/15 07:06:57;;;;;;;;;;;11.30;99.90;;;;;;5089947;28;19951;-71
2021/05/15 07:09:23;;;;;;;;;;;11.40;99.80;;;;;;5093537;28;19916;-77
2021/05/15 07:11:49;;;;;;;;;;;12.90;99.60;;;;;;5084267;28;19966;-67
2021/05/15 07:14:16;;;;;;;;;;;13.40;95.30;;;;;;5102925;28;19981;-69
2021/05/15 07:16:41;;;;;;;;;;;13.70;95.50;;;;;;5086494;28;20377;-69
2021/05/15 07:19:07;;;;;;;;;;;14.30;93.50;;;;;;5110790;28;19915;-69
2021/05/15 07:21:33;;;;;;;;;;;14.60;93.70;;;;;;5112738;28;19919;-69
2021/05/15 07:23:59;;;;;;;;;;;14.20;92.00;;;;;;5111143;28;19947;-70
2021/05/15 07:26:25;;;;;;;;;;;13.70;93.50;;;;;;5086504;28;19954;-69
2021/05/15 07:28:50;;;;;;;;;;;13.10;94.80;;;;;;5094631;28;19916;-69
2021/05/15 07:31:16;;;;;;;;;;;12.60;95.60;;;;;;5103688;28;19915;-70
2021/05/15 07:33:42;;;;;;;;;;;12.40;96.70;;;;;;5098794;28;19920;-69
2021/05/15 07:36:08;;;;;;;;;;;12.30;97.30;;;;;;5093551;28;20363;-71
2021/05/15 07:38:36;;;;;;;;;;;12.10;98.30;;;;;;5094335;28;19963;-70
2021/05/15 07:41:02;;;;;;;;;;;12.00;98.60;;;;;;5094316;28;19923;-70
2021/05/15 07:43:27;;;;;;;;;;;11.80;98.60;;;;;;5092981;28;19968;-70
2021/05/15 07:45:54;;;;;;;;;;;11.70;99.60;;;;;;5082715;28;19922;-70
2021/05/15 07:48:28;;;;;;;;;;;11.60;99.90;;;;;;5073965;28;19930;-69
2021/05/15 07:50:58;;;;;;;;;;;11.50;99.90;;;;;;5078105;28;19920;-70
2021/05/15 07:53:24;;;;;;;;;;;11.60;99.90;;;;;;5093796;28;19969;-70
2021/05/15 07:55:51;;;;;;;;;;;11.30;99.90;;;;;;5093653;28;19919;-68
2021/05/15 07:58:17;;;;;;;;;;;11.20;99.90;;;;;;5076450;28;19926;-69
2021/05/15 08:00:42;;;;;;;;;;;11.20;99.90;;;;;;5094929;28;20016;-68
2021/05/15 08:03:08;;;;;;;;;;;10.80;99.90;;;;;;5107643;28;19923;-70
2021/05/15 08:05:34;;;;;;;;;;;10.60;99.90;;;;;;5093853;28;20390;-70
2021/05/15 08:08:02;;;;;;;;;;;10.60;99.90;;;;;;5094397;28;19927;-68
2021/05/15 08:10:28;;;;;;;;;;;10.70;99.90;;;;;;5094102;28;19916;-69
2021/05/15 08:12:55;;;;;;;;;;;10.70;99.90;;;;;;5094131;28;19919;-69
2021/05/15 08:15:21;;;;;;;;;;;10.70;99.90;;;;;;5093652;28;19916;-69
2021/05/15 08:17:47;;;;;;;;;;;10.80;99.90;;;;;;5094227;28;19923;-70
2021/05/15 08:20:13;;;;;;;;;;;10.80;99.90;;;;;;5087859;28;19916;-69
2021/05/15 08:22:39;;;;;;;;;;;11.00;99.90;;;;;;5085891;28;20249;-69
2021/05/15 08:25:07;;;;;;;;;;;11.00;99.90;;;;;;5084442;28;19927;-70
2021/05/15 08:27:37;;;;;;;;;;;10.80;99.90;;;;;;5095884;28;19930;-68
2021/05/15 08:30:03;;;;;;;;;;;10.80;99.90;;;;;;5094158;28;20607;-70
2021/05/15 08:32:29;;;;;;;;;;;10.60;99.90;;;;;;5088345;28;19919;-68
2021/05/15 08:34:54;;;;;;;;;;;10.40;99.90;;;;;;5097758;28;20389;-69
2021/05/15 08:37:22;;;;;;;;;;;10.30;99.90;;;;;;5098030;28;19919;-68
2021/05/15 08:39:48;;;;;;;;;;;10.30;99.90;;;;;;5114285;28;19915;-72
2021/05/15 08:42:16;;;;;;;;;;;10.30;99.90;;;;;;5107346;28;19916;-69
2021/05/15 08:44:45;;;;;;;;;;;10.30;99.90;;;;;;5085380;28;19919;-69
2021/05/15 08:47:14;;;;;;;;;;;10.30;99.90;;;;;;5084132;28;20006;-70
2021/05/15 08:49:39;;;;;;;;;;;10.50;99.90;;;;;;5086792;28;19951;-70
2021/05/15 08:52:05;;;;;;;;;;;10.80;99.90;;;;;;5079492;28;19978;-71
2021/05/15 08:54:32;;;;;;;;;;;11.00;99.90;;;;;;5076119;28;19962;-71
2021/05/15 08:56:58;;;;;;;;;;;11.40;99.90;;;;;;5101291;28;19922;-69
2021/05/15 08:59:23;;;;;;;;;;;11.80;99.90;;;;;;5096213;28;20334;-71
2021/05/15 09:01:49;;;;;;;;;;;11.60;99.90;;;;;;5114610;28;19951;-70
2021/05/15 09:04:15;;;;;;;;;;;11.10;99.90;;;;;;5089084;28;20288;-70
2021/05/15 09:06:41;;;;;;;;;;;11.00;99.90;;;;;;5090992;28;20048;-70
2021/05/15 09:09:07;;;;;;;;;;;10.80;99.90;;;;;;5096194;28;19920;-69
2021/05/15 09:11:33;;;;;;;;;;;10.60;99.90;;;;;;5096876;28;19922;-68
2021/05/15 09:13:58;;;;;;;;;;;10.50;99.90;;;;;;5096417;28;19957;-71
2021/05/15 09:16:24;;;;;;;;;;;10.30;99.90;;;;;;5095569;28;19920;-71
2021/05/15 09:18:50;;;;;;;;;;;10.20;99.90;;;;;;5096505;28;19919;-70
2021/05/15 09:21:20;;;;;;;;;;;10.20;99.90;;;;;;5096698;28;19916;-70
2021/05/15 09:23:46;;;;;;;;;;;10.40;99.90;;;;;;5095977;28;19919;-70
2021/05/15 09:26:15;;;;;;;;;;;10.80;99.90;;;;;;5096141;28;19919;-70
2021/05/15 09:28:49;;;;;;;;;;;11.20;99.90;;;;;;5096479;28;19926;-70
2021/05/15 09:31:18;;;;;;;;;;;11.30;99.90;;;;;;5100316;28;19923;-70
2021/05/15 09:33:45;;;;;;;;;;;11.30;99.90;;;;;;5087519;28;19916;-70
2021/05/15 09:36:19;;;;;;;;;;;11.20;99.90;;;;;;5096073;28;20022;-70
2021/05/15 09:38:44;;;;;;;;;;;10.90;99.90;;;;;;5095976;28;20021;-70
2021/05/15 09:41:10;;;;;;;;;;;10.80;99.90;;;;;;5095463;28;20022;-70
2021/05/15 09:43:36;;;;;;;;;;;10.70;99.90;;;;;;5095985;28;19915;-70
2021/05/15 09:46:01;;;;;;;;;;;10.80;99.90;;;;;;5091356;28;19924;-70
2021/05/15 09:48:36;;;;;;;;;;;10.90;99.90;;;;;;5086680;28;19920;-70
2021/05/15 09:51:13;;;;;;;;;;;11.10;99.90;;;;;;5090394;28;19926;-71
2021/05/15 09:53:38;;;;;;;;;;;11.30;99.90;;;;;;5075530;28;19916;-70
2021/05/15 09:56:04;;;;;;;;;;;11.40;99.90;;;;;;5075054;28;19962;-71
2021/05/15 09:58:29;;;;;;;;;;;11.70;99.90;;;;;;5094722;28;19976;-69
2021/05/15 10:00:55;;;;;;;;;;;12.00;99.90;;;;;;5097434;28;19961;-69
2021/05/15 10:03:21;;;;;;;;;;;12.30;99.90;;;;;;5087113;28;19916;-70
2021/05/15 10:05:57;;;;;;;;;;;12.10;99.90;;;;;;5095043;28;19915;-70
2021/05/15 10:08:22;;;;;;;;;;;12.00;99.90;;;;;;5095757;28;19982;-71
2021/05/15 10:10:48;;;;;;;;;;;11.80;99.90;;;;;;5095566;28;20010;-71
2021/05/15 10:13:14;;;;;;;;;;;11.80;99.90;;;;;;5095646;28;19920;-71
2021/05/15 10:15:40;;;;;;;;;;;12.00;99.90;;;;;;5096505;28;19981;-70
2021/05/15 10:18:06;;;;;;;;;;;11.90;99.90;;;;;;5095809;28;19927;-70
2021/05/15 10:20:31;;;;;;;;;;;12.00;99.90;;;;;;5095370;28;19919;-71
2021/05/15 10:22:57;;;;;;;;;;;12.00;99.90;;;;;;5094968;28;19926;-70
2021/05/15 10:25:22;;;;;;;;;;;11.80;99.90;;;;;;5095406;28;19926;-69
2021/05/15 10:27:48;;;;;;;;;;;11.60;99.90;;;;;;5084189;28;19920;-69
2021/05/15 10:30:24;;;;;;;;;;;11.40;99.90;;;;;;5082537;28;20014;-71
2021/05/15 10:32:57;;;;;;;;;;;11.20;99.90;;;;;;5091635;28;20007;-71
2021/05/15 10:35:27;;;;;;;;;;;11.20;99.90;;;;;;5095042;28;19919;-72
2021/05/15 10:38:00;;;;;;;;;;;11.40;99.90;;;;;;5094912;28;20375;-71
2021/05/15 10:40:27;;;;;;;;;;;11.80;99.90;;;;;;5090410;28;19969;-71
2021/05/15 10:43:00;;;;;;;;;;;12.10;99.90;;;;;;5094347;28;19926;-70
2021/05/15 10:45:35;;;;;;;;;;;12.20;99.90;;;;;;5094063;28;19930;-70
2021/05/15 10:48:11;;;;;;;;;;;12.50;99.90;;;;;;5094994;28;19919;-71
2021/05/15 10:50:47;;;;;;;;;;;13.00;99.90;;;;;;5092776;28;19922;-71
2021/05/15 10:53:23;;;;;;;;;;;13.30;99.90;;;;;;5073705;28;20016;-72
2021/05/15 10:56:09;;;;;;;;;;;13.20;98.40;;;;;;5074551;28;19916;-70
2021/05/15 10:58:39;;;;;;;;;;;13.00;99.50;;;;;;5094213;28;19928;-70
2021/05/15 11:01:12;;;;;;;;;;;13.20;99.00;;;;;;5098141;28;19923;-71
2021/05/15 11:03:38;;;;;;;;;;;13.40;97.50;;;;;;5090672;28;19919;-70
2021/05/15 11:06:16;;;;;;;;;;;13.40;98.20;;;;;;5094195;28;19916;-71
2021/05/15 11:08:43;;;;;;;;;;;13.40;99.10;;;;;;5095005;28;19924;-70
2021/05/15 11:11:11;;;;;;;;;;;13.60;99.30;;;;;;5094972;28;19916;-71
2021/05/15 11:13:46;;;;;;;;;;;13.80;98.10;;;;;;5095502;28;19923;-71
2021/05/15 11:16:12;;;;;;;;;;;13.70;97.40;;;;;;5093317;28;20054;-70
2021/05/15 11:18:38;;;;;;;;;;;14.00;97.80;;;;;;5094573;28;19970;-70
2021/05/15 11:21:05;;;;;;;;;;;14.00;97.00;;;;;;5113367;28;19968;-71
2021/05/15 11:23:31;;;;;;;;;;;13.80;97.00;;;;;;5095058;28;20323;-71
2021/05/15 11:25:58;;;;;;;;;;;14.10;95.80;;;;;;5094579;28;20052;-71
2021/05/15 11:28:25;;;;;;;;;;;14.10;93.30;;;;;;5094440;28;19927;-70
2021/05/15 11:30:51;;;;;;;;;;;14.00;94.50;;;;;;5094660;28;19924;-70
2021/05/15 11:33:17;;;;;;;;;;;13.70;94.20;;;;;;5085763;28;19943;-70
2021/05/15 11:35:49;;;;;;;;;;;13.10;95.30;;;;;;5112431;28;19926;-70
2021/05/15 11:38:18;;;;;;;;;;;12.60;96.90;;;;;;5094059;28;19916;-71
2021/05/15 11:40:44;;;;;;;;;;;12.40;97.20;;;;;;5093826;28;19917;-71
2021/05/15 11:43:10;;;;;;;;;;;12.70;97.40;;;;;;5093976;28;19922;-69
2021/05/15 11:45:36;;;;;;;;;;;13.20;99.90;;;;;;5093255;28;19919;-71
2021/05/15 11:48:19;;;;;;;;;;;13.60;97.30;;;;;;5091069;28;20383;-71
2021/05/15 11:50:45;;;;;;;;;;;13.90;98.50;;;;;;5086687;28;19961;-71
2021/05/15 11:53:11;;;;;;;;;;;13.70;95.70;;;;;;5073795;28;19916;-70
2021/05/15 11:55:38;;;;;;;;;;;13.70;95.70;;;;;;5073008;28;19916;-70
2021/05/15 11:58:07;;;;;;;;;;;13.60;95.90;;;;;;5089820;28;20362;-71
2021/05/15 12:00:34;;;;;;;;;;;13.50;96.70;;;;;;5093787;28;20045;-71
2021/05/15 12:03:01;;;;;;;;;;;13.50;96.10;;;;;;5112144;28;19943;-71
2021/05/15 12:05:27;;;;;;;;;;;13.50;96.00;;;;;;5094500;28;19922;-71
2021/05/15 12:07:53;;;;;;;;;;;13.40;96.10;;;;;;5098431;28;20010;-69
2021/05/15 12:10:21;;;;;;;;;;;13.40;95.70;;;;;;5097802;28;19926;-68
2021/05/15 12:13:00;;;;;;;;;;;13.50;96.20;;;;;;5097685;28;19915;-68
2021/05/15 12:15:27;;;;;;;;;;;13.50;96.70;;;;;;5097114;28;20006;-69
2021/05/15 12:17:52;;;;;;;;;;;13.50;96.30;;;;;;5097827;28;19919;-68
2021/05/15 12:20:25;;;;;;;;;;;13.30;96.00;;;;;;5097150;28;19977;-68
2021/05/15 12:23:01;;;;;;;;;;;13.20;96.70;;;;;;5097730;28;20403;-67
2021/05/15 12:25:27;;;;;;;;;;;13.30;96.00;;;;;;5097238;28;19916;-68
2021/05/15 12:27:52;;;;;;;;;;;13.40;95.60;;;;;;5097186;28;19931;-69
2021/05/15 12:30:20;;;;;;;;;;;13.50;94.70;;;;;;5096685;28;19923;-69
2021/05/15 12:32:46;;;;;;;;;;;13.70;95.30;;;;;;5094385;28;19923;-68
2021/05/15 12:35:12;;;;;;;;;;;13.80;93.70;;;;;;5081613;28;19930;-69
2021/05/15 12:37:39;;;;;;;;;;;13.80;95.30;;;;;;5088988;28;19916;-69
2021/05/15 12:40:09;;;;;;;;;;;13.90;93.70;;;;;;5097238;28;20013;-67
2021/05/15 12:42:34;;;;;;;;;;;13.80;93.30;;;;;;5115453;28;19919;-69
2021/05/15 12:45:11;;;;;;;;;;;13.90;94.00;;;;;;5096360;28;19987;-70
2021/05/15 12:47:37;;;;;;;;;;;14.10;94.70;;;;;;5106229;28;19920;-70
2021/05/15 12:50:14;;;;;;;;;;;14.10;93.90;;;;;;5097307;28;19964;-70
2021/05/15 12:52:39;;;;;;;;;;;13.60;93.50;;;;;;5077742;28;19923;-69
2021/05/15 12:55:09;;;;;;;;;;;13.40;94.50;;;;;;5076630;28;19916;-70
2021/05/15 12:57:35;;;;;;;;;;;13.00;95.80;;;;;;5088762;28;19968;-69
2021/05/15 13:00:01;;;;;;;;;;;12.60;97.00;;;;;;5096458;28;20014;-70
2021/05/15 13:02:26;;;;;;;;;;;11.70;98.40;;;;;;5096816;28;19915;-68
2021/05/15 13:04:59;;;;;;;;;;;11.50;99.90;;;;;;5101760;28;19920;-70
2021/05/15 13:07:29;;;;;;;;;;;11.20;99.90;;;;;;5076064;28;19920;-69
2021/05/15 13:09:55;;;;;;;;;;;10.90;99.90;;;;;;5076288;28;20005;-69
2021/05/15 13:12:22;;;;;;;;;;;10.80;99.90;;;;;;5076474;28;19920;-69
2021/05/15 13:14:48;;;;;;;;;;;10.90;99.90;;;;;;5075940;28;20101;-70
2021/05/15 13:17:14;;;;;;;;;;;11.00;99.90;;;;;;5074751;28;20005;-68
2021/05/15 13:19:39;;;;;;;;;;;11.20;99.90;;;;;;5076362;28;19920;-68
2021/05/15 13:22:05;;;;;;;;;;;11.10;99.90;;;;;;5076261;28;19942;-70
2021/05/15 13:24:31;;;;;;;;;;;11.10;99.90;;;;;;5075598;28;19916;-68
2021/05/15 13:26:56;;;;;;;;;;;11.10;99.90;;;;;;5075946;28;20278;-69
2021/05/15 13:29:22;;;;;;;;;;;11.00;99.90;;;;;;5076161;28;19919;-69
2021/05/15 13:31:48;;;;;;;;;;;10.90;99.90;;;;;;5087942;28;20011;-70
2021/05/15 13:34:13;;;;;;;;;;;10.70;99.90;;;;;;5113519;28;19921;-70
2021/05/15 13:36:39;;;;;;;;;;;10.60;99.90;;;;;;5114313;28;19919;-70
2021/05/15 13:39:05;;;;;;;;;;;10.50;99.90;;;;;;5102317;28;20350;-69
2021/05/15 13:41:32;;;;;;;;;;;10.30;99.90;;;;;;5089090;28;20006;-69
2021/05/15 13:43:57;;;;;;;;;;;10.20;99.90;;;;;;5113483;28;19916;-70
2021/05/15 13:46:23;;;;;;;;;;;10.30;99.90;;;;;;5095196;28;19926;-68
2021/05/15 13:48:49;;;;;;;;;;;10.30;99.90;;;;;;5096117;28;19927;-70
2021/05/15 13:51:16;;;;;;;;;;;10.50;99.90;;;;;;5089872;28;20355;-69
2021/05/15 13:53:43;;;;;;;;;;;10.50;99.90;;;;;;5075790;28;19915;-69
2021/05/15 13:56:08;;;;;;;;;;;10.80;99.90;;;;;;5075500;28;19923;-69
2021/05/15 13:58:35;;;;;;;;;;;10.90;99.90;;;;;;5095358;28;19916;-68
2021/05/15 14:01:01;;;;;;;;;;;10.80;99.90;;;;;;5097625;28;19915;-70
2021/05/15 14:03:27;;;;;;;;;;;10.80;99.90;;;;;;5091327;28;19964;-68
2021/05/15 14:05:52;;;;;;;;;;;11.00;99.90;;;;;;5095485;28;19969;-68
2021/05/15 14:08:18;;;;;;;;;;;11.20;99.90;;;;;;5094750;28;19924;-69
2021/05/15 14:10:46;;;;;;;;;;;11.20;99.90;;;;;;5095455;28;20399;-68
2021/05/15 14:13:12;;;;;;;;;;;11.40;99.90;;;;;;5095513;28;19931;-70
2021/05/15 14:15:38;;;;;;;;;;;11.50;99.90;;;;;;5094324;28;19923;-70
2021/05/15 14:18:05;;;;;;;;;;;11.50;99.90;;;;;;5094962;28;19916;-70
2021/05/15 14:20:31;;;;;;;;;;;11.60;99.90;;;;;;5095551;28;19915;-68
2021/05/15 14:22:57;;;;;;;;;;;11.70;99.90;;;;;;5095380;28;19920;-69
2021/05/15 14:25:22;;;;;;;;;;;11.60;99.90;;;;;;5094571;28;19919;-68